Seahope II — 9HA2233 — position and weather

sailwx.info

Track history (hours):
 
Tides and Currents Weather Stations Pressure Air Temp Water Temp Dewpoint Dewpoint Depression Visibility Wind Speed Wind Dir Waves Ship Positions

Seahope II

Last reported at 2018-Jan-10 18:14 UTC. Time now 2018-Jan-21 20:49 UTC.
Position N 09°11' W 079°53'.
Warning: this ship's position is 11 days out of date.

Length 190 m; draft 11.9 m.

Type: Cargo ship. MMSI: 248185000.

Date/timePositionNaut miles runAvg speedWind from/ knotsBaromVisibWave heightAir tempDewpointWater temp
2018-Jan-10 18:14N 09°11' W 079°53'310.4
2018-Jan-10 17:56N 09°13' W 079°55'1 0.3
2018-Jan-10 13:38N 09°14' W 079°56'0 0.1
2018-Jan-10 12:26N 09°14' W 079°56'0 0.0
2018-Jan-10 11:53N 09°14' W 079°56'0 0.1
2018-Jan-10 11:11N 09°14' W 079°56'0 0.1
2018-Jan-10 10:59N 09°14' W 079°56'0 0.0
2018-Jan-10 09:41N 09°14' W 079°56'0 0.2
2018-Jan-10 09:29N 09°14' W 079°56'0 0.0
2018-Jan-10 08:50N 09°14' W 079°56'0 0.1
2018-Jan-10 08:29N 09°14' W 079°56'0 0.1
2018-Jan-10 07:32N 09°14' W 079°56'0 0.1
2018-Jan-10 07:26N 09°14' W 079°56'0 0.0
2018-Jan-10 06:50N 09°14' W 079°56'0 0.0
2018-Jan-10 06:20N 09°14' W 079°56'0 0.0
2018-Jan-10 05:53N 09°14' W 079°56'0 0.0
2018-Jan-10 05:25N 09°14' W 079°56'0 0.0
2018-Jan-10 04:56N 09°14' W 079°56'0 0.0
2018-Jan-10 04:30N 09°14' W 079°56'0 0.1
2018-Jan-10 04:00N 09°14' W 079°56'0 0.1
2018-Jan-10 03:30N 09°14' W 079°56'1 1.3
2018-Jan-10 03:00N 09°15' W 079°55'1 2.9
2018-Jan-10 02:30N 09°16' W 079°55'0 0.6
2018-Jan-10 02:00N 09°16' W 079°55'0 0.4
2018-Jan-10 01:30N 09°17' W 079°55'0 0.3
2018-Jan-10 01:00N 09°17' W 079°55'1 1.3
2018-Jan-10 00:30N 09°17' W 079°55'3 5.1
2018-Jan-10 00:00N 09°20' W 079°55'3 5.1
2018-Jan-09 23:30N 09°22' W 079°55'0 0.4
2018-Jan-09 22:58N 09°22' W 079°55'0 0.1
2018-Jan-09 22:28N 09°22' W 079°55'0 0.0
2018-Jan-09 21:58N 09°22' W 079°55'0 0.0
2018-Jan-09 21:28N 09°22' W 079°55'0 0.0
2018-Jan-09 20:58N 09°22' W 079°55'0 0.0
2018-Jan-09 20:28N 09°22' W 079°55'0 0.1
2018-Jan-09 19:58N 09°22' W 079°55'0 0.0
2018-Jan-09 19:28N 09°22' W 079°55'0 0.0
2018-Jan-09 18:58N 09°22' W 079°55'0 0.0
2018-Jan-09 18:28N 09°22' W 079°55'0 0.0
2018-Jan-09 17:58N 09°22' W 079°55'0 0.0
2018-Jan-09 17:28N 09°22' W 079°55'0 0.0
2018-Jan-09 16:58N 09°22' W 079°55'0 0.0
2018-Jan-09 16:28N 09°22' W 079°55'0 0.1
2018-Jan-09 15:58N 09°22' W 079°55'0 0.0
2018-Jan-09 15:28N 09°22' W 079°55'0 0.1
2018-Jan-09 14:58N 09°22' W 079°55'0 0.1
2018-Jan-09 14:31N 09°22' W 079°55'0 0.2
2018-Jan-09 14:01N 09°22' W 079°55'2 4.0
2018-Jan-09 13:31N 09°24' W 079°55'3 6.6
2018-Jan-09 13:00N 09°27' W 079°57'1 1.1
2018-Jan-09 12:26N 09°27' W 079°58'0 0.1
2018-Jan-09 11:59N 09°27' W 079°58'0 0.0
2018-Jan-09 11:29N 09°27' W 079°58'0 0.0
2018-Jan-09 10:59N 09°27' W 079°58'0 0.0
2018-Jan-09 10:29N 09°27' W 079°58'0 0.0
2018-Jan-09 09:59N 09°27' W 079°58'0 0.0
2018-Jan-09 09:29N 09°27' W 079°58'0 0.0
2018-Jan-09 08:59N 09°27' W 079°58'0 0.0
2018-Jan-09 08:29N 09°27' W 079°58'0 0.0
2018-Jan-09 07:59N 09°27' W 079°58'0 0.0
2018-Jan-09 07:29N 09°27' W 079°58'0 0.0
2018-Jan-09 06:59N 09°27' W 079°57'0 0.0
2018-Jan-09 06:29N 09°27' W 079°57'0 0.0
2018-Jan-09 05:59N 09°27' W 079°57'0 0.0
2018-Jan-09 05:29N 09°27' W 079°57'0 0.0
2018-Jan-09 04:56N 09°27' W 079°57'0 0.0
2018-Jan-09 04:29N 09°27' W 079°58'0 0.0
2018-Jan-09 03:59N 09°27' W 079°57'0 0.0
2018-Jan-09 03:29N 09°27' W 079°57'0 0.0
2018-Jan-09 02:59N 09°27' W 079°57'0 0.0
2018-Jan-09 02:29N 09°27' W 079°57'0 0.0
2018-Jan-09 01:59N 09°27' W 079°57'0 0.0
2018-Jan-09 01:29N 09°27' W 079°57'0 0.0
2018-Jan-09 00:59N 09°27' W 079°57'0 0.0
2018-Jan-09 00:23N 09°27' W 079°57'0 0.0
2018-Jan-08 23:56N 09°27' W 079°57'0 0.0
2018-Jan-08 23:29N 09°27' W 079°57'0 0.0
2018-Jan-08 22:59N 09°27' W 079°57'0 0.0
2018-Jan-08 22:23N 09°27' W 079°57'0 0.0
2018-Jan-08 21:59N 09°27' W 079°57'0 0.0
2018-Jan-08 21:29N 09°27' W 079°57'0 0.0
2018-Jan-08 20:35N 09°27' W 079°57'0 0.0
2018-Jan-08 20:08N 09°27' W 079°57'0 0.0
2018-Jan-08 19:35N 09°27' W 079°57'0 0.0
2018-Jan-08 19:20N 09°27' W 079°57'0 0.0
2018-Jan-08 17:14N 09°27' W 079°57'0 0.1
2018-Jan-08 16:59N 09°27' W 079°57'0 0.1
2018-Jan-08 16:26N 09°27' W 079°57'0 0.0
2018-Jan-08 15:59N 09°27' W 079°58'0 0.0
2018-Jan-08 15:23N 09°27' W 079°57'0 0.0
2018-Jan-08 14:50N 09°27' W 079°57'0 0.0
2018-Jan-08 14:29N 09°27' W 079°57'0 0.0
2018-Jan-08 13:59N 09°27' W 079°58'0 0.0
2018-Jan-08 13:29N 09°27' W 079°58'0 0.0
2018-Jan-08 12:56N 09°27' W 079°57'0 0.0
2018-Jan-08 12:26N 09°27' W 079°58'0 0.0
2018-Jan-08 11:59N 09°27' W 079°58'0 0.0
2018-Jan-08 11:26N 09°27' W 079°58'0 0.0
2018-Jan-08 10:59N 09°27' W 079°57'0 0.0
2018-Jan-08 10:29N 09°27' W 079°58'0 0.0
2018-Jan-08 09:59N 09°27' W 079°58'0 0.1
2018-Jan-08 09:29N 09°27' W 079°57'0 0.0
2018-Jan-08 08:59N 09°27' W 079°57'0 0.0
2018-Jan-08 08:29N 09°27' W 079°57'0 0.0
2018-Jan-08 07:56N 09°27' W 079°57'0 0.0
2018-Jan-08 07:29N 09°27' W 079°57'0 0.0
2018-Jan-08 06:59N 09°27' W 079°57'0 0.0
2018-Jan-08 06:29N 09°27' W 079°58'0 0.0
2018-Jan-08 05:56N 09°27' W 079°57'0 0.0
2018-Jan-08 05:29N 09°27' W 079°57'0 0.0
2018-Jan-08 04:59N 09°27' W 079°58'0 0.1
2018-Jan-08 04:29N 09°27' W 079°57'0 0.0
2018-Jan-08 03:59N 09°27' W 079°57'0 0.0
2018-Jan-08 03:29N 09°27' W 079°57'0 0.0
2018-Jan-08 02:59N 09°27' W 079°57'0 0.1
2018-Jan-08 02:28N 09°27' W 079°58'0 0.0
2018-Jan-08 01:58N 09°27' W 079°58'0 0.0
2018-Jan-08 01:28N 09°27' W 079°57'0 0.1
2018-Jan-08 00:58N 09°27' W 079°58'0 0.0
2018-Jan-08 00:28N 09°27' W 079°58'0 0.0
2018-Jan-07 23:59N 09°27' W 079°58'0 0.0
2018-Jan-07 23:29N 09°27' W 079°58'0 0.0
2018-Jan-07 23:00N 09°27' W 079°58'0 0.1
2018-Jan-07 22:29N 09°27' W 079°58'0 0.0
2018-Jan-07 21:59N 09°27' W 079°58'0 0.0
2018-Jan-07 21:12N 09°27' W 079°58'0 0.0
2018-Jan-07 20:35N 09°27' W 079°58'0 0.1
2018-Jan-07 20:29N 09°27' W 079°58'0 0.0
2018-Jan-07 19:56N 09°27' W 079°58'0 0.0
2018-Jan-07 19:27N 09°27' W 079°58'0 0.0
2018-Jan-07 18:57N 09°27' W 079°58'0 0.0
2018-Jan-07 18:24N 09°27' W 079°58'0 0.0
2018-Jan-07 17:46N 09°27' W 079°58'0 0.0
2018-Jan-07 17:30N 09°27' W 079°58'0 0.0
2018-Jan-07 17:00N 09°27' W 079°58'0 0.0
2018-Jan-07 16:29N 09°27' W 079°58'0 0.0
2018-Jan-07 16:01N 09°27' W 079°58'0 0.0
2018-Jan-07 15:30N 09°27' W 079°58'0 0.1
2018-Jan-07 15:00N 09°27' W 079°58'0 0.0
2018-Jan-07 14:25N 09°27' W 079°58'0 0.1
2018-Jan-07 14:00N 09°27' W 079°57'0 0.0
2018-Jan-07 13:30N 09°27' W 079°57'0 0.1
2018-Jan-07 13:01N 09°26' W 079°57'0 0.1
2018-Jan-07 12:29N 09°26' W 079°57'0 0.1
2018-Jan-07 12:00N 09°26' W 079°58'0 0.1
2018-Jan-07 11:28N 09°26' W 079°57'0 0.1
2018-Jan-07 10:58N 09°26' W 079°57'0 0.0
2018-Jan-07 10:29N 09°26' W 079°57'0 0.0
2018-Jan-07 10:00N 09°26' W 079°57'0 0.1
2018-Jan-07 09:27N 09°26' W 079°58'0 0.1
2018-Jan-07 08:59N 09°26' W 079°57'0 0.1
2018-Jan-07 08:28N 09°26' W 079°57'0 0.0
2018-Jan-07 08:00N 09°26' W 079°57'0 0.1
2018-Jan-07 07:30N 09°26' W 079°57'0 0.1
2018-Jan-07 06:59N 09°26' W 079°57'0 0.0
2018-Jan-07 06:30N 09°26' W 079°57'0 0.1
2018-Jan-07 06:00N 09°26' W 079°57'1 2.3
2018-Jan-07 05:30N 09°26' W 079°56'4 8.6
2018-Jan-07 05:00N 09°30' W 079°54'  
2018-Jan-03 15:01N 16°17' W 062°44'713.5
2018-Jan-03 14:28N 16°19' W 062°37'1113.6
2018-Jan-03 13:38N 16°24' W 062°26'213.7
2018-Jan-03 13:30N 16°24' W 062°24'714.0
2018-Jan-03 13:00N 16°27' W 062°17'714.1
2018-Jan-03 12:31N 16°30' W 062°11'713.7
2018-Jan-03 12:00N 16°33' W 062°04'713.2
2018-Jan-03 11:30N 16°36' W 061°58'713.5
2018-Jan-03 11:00N 16°39' W 061°52'713.8
2018-Jan-03 10:30N 16°43' W 061°46'713.7
2018-Jan-03 10:00N 16°46' W 061°39'713.7
2018-Jan-03 09:30N 16°49' W 061°33'713.4
2018-Jan-03 09:00N 16°52' W 061°27'713.2
2018-Jan-03 08:30N 16°55' W 061°21'713.4
2018-Jan-03 08:00N 16°58' W 061°14'713.2
2018-Jan-03 07:30N 17°01' W 061°08'  
Track history (hours):
 
Tides and Currents Weather Stations Pressure Air Temp Water Temp Dewpoint Dewpoint Depression Visibility Wind Speed Wind Dir Waves Ship Positions

Seahope II

Last reported at 2018-Jan-10 18:14 UTC. Time now 2018-Jan-21 20:49 UTC.
Position N 09°11' W 079°53'.
Warning: this ship's position is 11 days out of date.

Length 190 m; draft 11.9 m.

Type: Cargo ship. MMSI: 248185000.

Date/timePositionNaut miles runAvg speedWind from/ knotsBaromVisibWave heightAir tempDewpointWater temp
2018-Jan-10 18:14N 09°11' W 079°53'310.4
2018-Jan-10 17:56N 09°13' W 079°55'1 0.3
2018-Jan-10 13:38N 09°14' W 079°56'0 0.1
2018-Jan-10 12:26N 09°14' W 079°56'0 0.0
2018-Jan-10 11:53N 09°14' W 079°56'0 0.1
2018-Jan-10 11:11N 09°14' W 079°56'0 0.1
2018-Jan-10 10:59N 09°14' W 079°56'0 0.0
2018-Jan-10 09:41N 09°14' W 079°56'0 0.2
2018-Jan-10 09:29N 09°14' W 079°56'0 0.0
2018-Jan-10 08:50N 09°14' W 079°56'0 0.1
2018-Jan-10 08:29N 09°14' W 079°56'0 0.1
2018-Jan-10 07:32N 09°14' W 079°56'0 0.1
2018-Jan-10 07:26N 09°14' W 079°56'0 0.0
2018-Jan-10 06:50N 09°14' W 079°56'0 0.0
2018-Jan-10 06:20N 09°14' W 079°56'0 0.0
2018-Jan-10 05:53N 09°14' W 079°56'0 0.0
2018-Jan-10 05:25N 09°14' W 079°56'0 0.0
2018-Jan-10 04:56N 09°14' W 079°56'0 0.0
2018-Jan-10 04:30N 09°14' W 079°56'0 0.1
2018-Jan-10 04:00N 09°14' W 079°56'0 0.1
2018-Jan-10 03:30N 09°14' W 079°56'1 1.3
2018-Jan-10 03:00N 09°15' W 079°55'1 2.9
2018-Jan-10 02:30N 09°16' W 079°55'0 0.6
2018-Jan-10 02:00N 09°16' W 079°55'0 0.4
2018-Jan-10 01:30N 09°17' W 079°55'0 0.3
2018-Jan-10 01:00N 09°17' W 079°55'1 1.3
2018-Jan-10 00:30N 09°17' W 079°55'3 5.1
2018-Jan-10 00:00N 09°20' W 079°55'3 5.1
2018-Jan-09 23:30N 09°22' W 079°55'0 0.4
2018-Jan-09 22:58N 09°22' W 079°55'0 0.1
2018-Jan-09 22:28N 09°22' W 079°55'0 0.0
2018-Jan-09 21:58N 09°22' W 079°55'0 0.0
2018-Jan-09 21:28N 09°22' W 079°55'0 0.0
2018-Jan-09 20:58N 09°22' W 079°55'0 0.0
2018-Jan-09 20:28N 09°22' W 079°55'0 0.1
2018-Jan-09 19:58N 09°22' W 079°55'0 0.0
2018-Jan-09 19:28N 09°22' W 079°55'0 0.0
2018-Jan-09 18:58N 09°22' W 079°55'0 0.0
2018-Jan-09 18:28N 09°22' W 079°55'0 0.0
2018-Jan-09 17:58N 09°22' W 079°55'0 0.0
2018-Jan-09 17:28N 09°22' W 079°55'0 0.0
2018-Jan-09 16:58N 09°22' W 079°55'0 0.0
2018-Jan-09 16:28N 09°22' W 079°55'0 0.1
2018-Jan-09 15:58N 09°22' W 079°55'0 0.0
2018-Jan-09 15:28N 09°22' W 079°55'0 0.1
2018-Jan-09 14:58N 09°22' W 079°55'0 0.1
2018-Jan-09 14:31N 09°22' W 079°55'0 0.2
2018-Jan-09 14:01N 09°22' W 079°55'2 4.0
2018-Jan-09 13:31N 09°24' W 079°55'3 6.6
2018-Jan-09 13:00N 09°27' W 079°57'1 1.1
2018-Jan-09 12:26N 09°27' W 079°58'0 0.1
2018-Jan-09 11:59N 09°27' W 079°58'0 0.0
2018-Jan-09 11:29N 09°27' W 079°58'0 0.0
2018-Jan-09 10:59N 09°27' W 079°58'0 0.0
2018-Jan-09 10:29N 09°27' W 079°58'0 0.0
2018-Jan-09 09:59N 09°27' W 079°58'0 0.0
2018-Jan-09 09:29N 09°27' W 079°58'0 0.0
2018-Jan-09 08:59N 09°27' W 079°58'0 0.0
2018-Jan-09 08:29N 09°27' W 079°58'0 0.0
2018-Jan-09 07:59N 09°27' W 079°58'0 0.0
2018-Jan-09 07:29N 09°27' W 079°58'0 0.0
2018-Jan-09 06:59N 09°27' W 079°57'0 0.0
2018-Jan-09 06:29N 09°27' W 079°57'0 0.0
2018-Jan-09 05:59N 09°27' W 079°57'0 0.0
2018-Jan-09 05:29N 09°27' W 079°57'0 0.0
2018-Jan-09 04:56N 09°27' W 079°57'0 0.0
2018-Jan-09 04:29N 09°27' W 079°58'0 0.0
2018-Jan-09 03:59N 09°27' W 079°57'0 0.0
2018-Jan-09 03:29N 09°27' W 079°57'0 0.0
2018-Jan-09 02:59N 09°27' W 079°57'0 0.0
2018-Jan-09 02:29N 09°27' W 079°57'0 0.0
2018-Jan-09 01:59N 09°27' W 079°57'0 0.0
2018-Jan-09 01:29N 09°27' W 079°57'0 0.0
2018-Jan-09 00:59N 09°27' W 079°57'0 0.0
2018-Jan-09 00:23N 09°27' W 079°57'0 0.0
2018-Jan-08 23:56N 09°27' W 079°57'0 0.0
2018-Jan-08 23:29N 09°27' W 079°57'0 0.0
2018-Jan-08 22:59N 09°27' W 079°57'0 0.0
2018-Jan-08 22:23N 09°27' W 079°57'0 0.0
2018-Jan-08 21:59N 09°27' W 079°57'0 0.0
2018-Jan-08 21:29N 09°27' W 079°57'0 0.0
2018-Jan-08 20:35N 09°27' W 079°57'0 0.0
2018-Jan-08 20:08N 09°27' W 079°57'0 0.0
2018-Jan-08 19:35N 09°27' W 079°57'0 0.0
2018-Jan-08 19:20N 09°27' W 079°57'0 0.0
2018-Jan-08 17:14N 09°27' W 079°57'0 0.1
2018-Jan-08 16:59N 09°27' W 079°57'0 0.1
2018-Jan-08 16:26N 09°27' W 079°57'0 0.0
2018-Jan-08 15:59N 09°27' W 079°58'0 0.0
2018-Jan-08 15:23N 09°27' W 079°57'0 0.0
2018-Jan-08 14:50N 09°27' W 079°57'0 0.0
2018-Jan-08 14:29N 09°27' W 079°57'0 0.0
2018-Jan-08 13:59N 09°27' W 079°58'0 0.0
2018-Jan-08 13:29N 09°27' W 079°58'0 0.0
2018-Jan-08 12:56N 09°27' W 079°57'0 0.0
2018-Jan-08 12:26N 09°27' W 079°58'0 0.0
2018-Jan-08 11:59N 09°27' W 079°58'0 0.0
2018-Jan-08 11:26N 09°27' W 079°58'0 0.0
2018-Jan-08 10:59N 09°27' W 079°57'0 0.0
2018-Jan-08 10:29N 09°27' W 079°58'0 0.0
2018-Jan-08 09:59N 09°27' W 079°58'0 0.1
2018-Jan-08 09:29N 09°27' W 079°57'0 0.0
2018-Jan-08 08:59N 09°27' W 079°57'0 0.0
2018-Jan-08 08:29N 09°27' W 079°57'0 0.0
2018-Jan-08 07:56N 09°27' W 079°57'0 0.0
2018-Jan-08 07:29N 09°27' W 079°57'0 0.0
2018-Jan-08 06:59N 09°27' W 079°57'0 0.0
2018-Jan-08 06:29N 09°27' W 079°58'0 0.0
2018-Jan-08 05:56N 09°27' W 079°57'0 0.0
2018-Jan-08 05:29N 09°27' W 079°57'0 0.0
2018-Jan-08 04:59N 09°27' W 079°58'0 0.1
2018-Jan-08 04:29N 09°27' W 079°57'0 0.0
2018-Jan-08 03:59N 09°27' W 079°57'0 0.0
2018-Jan-08 03:29N 09°27' W 079°57'0 0.0
2018-Jan-08 02:59N 09°27' W 079°57'0 0.1
2018-Jan-08 02:28N 09°27' W 079°58'0 0.0
2018-Jan-08 01:58N 09°27' W 079°58'0 0.0
2018-Jan-08 01:28N 09°27' W 079°57'0 0.1
2018-Jan-08 00:58N 09°27' W 079°58'0 0.0
2018-Jan-08 00:28N 09°27' W 079°58'0 0.0
2018-Jan-07 23:59N 09°27' W 079°58'0 0.0
2018-Jan-07 23:29N 09°27' W 079°58'0 0.0
2018-Jan-07 23:00N 09°27' W 079°58'0 0.1
2018-Jan-07 22:29N 09°27' W 079°58'0 0.0
2018-Jan-07 21:59N 09°27' W 079°58'0 0.0
2018-Jan-07 21:12N 09°27' W 079°58'0 0.0
2018-Jan-07 20:35N 09°27' W 079°58'0 0.1
2018-Jan-07 20:29N 09°27' W 079°58'0 0.0
2018-Jan-07 19:56N 09°27' W 079°58'0 0.0
2018-Jan-07 19:27N 09°27' W 079°58'0 0.0
2018-Jan-07 18:57N 09°27' W 079°58'0 0.0
2018-Jan-07 18:24N 09°27' W 079°58'0 0.0
2018-Jan-07 17:46N 09°27' W 079°58'0 0.0
2018-Jan-07 17:30N 09°27' W 079°58'0 0.0
2018-Jan-07 17:00N 09°27' W 079°58'0 0.0
2018-Jan-07 16:29N 09°27' W 079°58'0 0.0
2018-Jan-07 16:01N 09°27' W 079°58'0 0.0
2018-Jan-07 15:30N 09°27' W 079°58'0 0.1
2018-Jan-07 15:00N 09°27' W 079°58'0 0.0
2018-Jan-07 14:25N 09°27' W 079°58'0 0.1
2018-Jan-07 14:00N 09°27' W 079°57'0 0.0
2018-Jan-07 13:30N 09°27' W 079°57'0 0.1
2018-Jan-07 13:01N 09°26' W 079°57'0 0.1
2018-Jan-07 12:29N 09°26' W 079°57'0 0.1
2018-Jan-07 12:00N 09°26' W 079°58'0 0.1
2018-Jan-07 11:28N 09°26' W 079°57'0 0.1
2018-Jan-07 10:58N 09°26' W 079°57'0 0.0
2018-Jan-07 10:29N 09°26' W 079°57'0 0.0
2018-Jan-07 10:00N 09°26' W 079°57'0 0.1
2018-Jan-07 09:27N 09°26' W 079°58'0 0.1
2018-Jan-07 08:59N 09°26' W 079°57'0 0.1
2018-Jan-07 08:28N 09°26' W 079°57'0 0.0
2018-Jan-07 08:00N 09°26' W 079°57'0 0.1
2018-Jan-07 07:30N 09°26' W 079°57'0 0.1
2018-Jan-07 06:59N 09°26' W 079°57'0 0.0
2018-Jan-07 06:30N 09°26' W 079°57'0 0.1
2018-Jan-07 06:00N 09°26' W 079°57'1 2.3
2018-Jan-07 05:30N 09°26' W 079°56'4 8.6
2018-Jan-07 05:00N 09°30' W 079°54'  
2018-Jan-03 15:01N 16°17' W 062°44'713.5
2018-Jan-03 14:28N 16°19' W 062°37'1113.6
2018-Jan-03 13:38N 16°24' W 062°26'213.7
2018-Jan-03 13:30N 16°24' W 062°24'714.0
2018-Jan-03 13:00N 16°27' W 062°17'714.1
2018-Jan-03 12:31N 16°30' W 062°11'713.7
2018-Jan-03 12:00N 16°33' W 062°04'713.2
2018-Jan-03 11:30N 16°36' W 061°58'713.5
2018-Jan-03 11:00N 16°39' W 061°52'713.8
2018-Jan-03 10:30N 16°43' W 061°46'713.7
2018-Jan-03 10:00N 16°46' W 061°39'713.7
2018-Jan-03 09:30N 16°49' W 061°33'713.4
2018-Jan-03 09:00N 16°52' W 061°27'713.2
2018-Jan-03 08:30N 16°55' W 061°21'713.4
2018-Jan-03 08:00N 16°58' W 061°14'713.2
2018-Jan-03 07:30N 17°01' W 061°08'  

Dump ship's entire track history